sensor_id;sensor_type;location;lat;lon;timestamp;temperature;humidity
4813;DHT22;2420;51.202;8.698;2023-06-26T00:02:09;18.30;1.00
4813;DHT22;2420;51.202;8.698;2023-06-26T00:04:35;18.20;1.00
4813;DHT22;2420;51.202;8.698;2023-06-26T00:07:03;18.20;1.00
4813;DHT22;2420;51.202;8.698;2023-06-26T00:09:29;18.10;1.00
4813;DHT22;2420;51.202;8.698;2023-06-26T00:11:54;18.10;1.00
4813;DHT22;2420;51.202;8.698;2023-06-26T00:14:20;18.20;1.00
4813;DHT22;2420;51.202;8.698;2023-06-26T00:16:46;18.20;1.00
4813;DHT22;2420;51.202;8.698;2023-06-26T00:19:13;18.20;1.00
4813;DHT22;2420;51.202;8.698;2023-06-26T00:21:39;18.20;1.00
4813;DHT22;2420;51.202;8.698;2023-06-26T00:24:04;18.20;1.00
4813;DHT22;2420;51.202;8.698;2023-06-26T00:26:30;18.10;1.00
4813;DHT22;2420;51.202;8.698;2023-06-26T00:28:55;18.00;1.00
4813;DHT22;2420;51.202;8.698;2023-06-26T00:31:21;18.00;1.00
4813;DHT22;2420;51.202;8.698;2023-06-26T00:33:47;18.00;1.00
4813;DHT22;2420;51.202;8.698;2023-06-26T00:36:13;17.90;1.00
4813;DHT22;2420;51.202;8.698;2023-06-26T00:38:39;17.90;1.00
4813;DHT22;2420;51.202;8.698;2023-06-26T00:41:05;17.80;1.00
4813;DHT22;2420;51.202;8.698;2023-06-26T00:43:37;17.80;1.00
4813;DHT22;2420;51.202;8.698;2023-06-26T00:46:02;17.80;1.00
4813;DHT22;2420;51.202;8.698;2023-06-26T00:48:29;17.80;1.00
4813;DHT22;2420;51.202;8.698;2023-06-26T00:50:54;17.70;1.00
4813;DHT22;2420;51.202;8.698;2023-06-26T00:53:20;17.70;1.00
4813;DHT22;2420;51.202;8.698;2023-06-26T00:55:47;17.70;1.00
4813;DHT22;2420;51.202;8.698;2023-06-26T00:58:12;17.70;1.00
4813;DHT22;2420;51.202;8.698;2023-06-26T01:00:38;17.70;1.00
4813;DHT22;2420;51.202;8.698;2023-06-26T01:03:04;17.80;1.00
4813;DHT22;2420;51.202;8.698;2023-06-26T01:05:30;17.80;1.00
4813;DHT22;2420;51.202;8.698;2023-06-26T01:07:57;17.80;1.00
4813;DHT22;2420;51.202;8.698;2023-06-26T01:10:24;17.80;1.00
4813;DHT22;2420;51.202;8.698;2023-06-26T01:12:50;17.70;1.00
4813;DHT22;2420;51.202;8.698;2023-06-26T01:15:15;17.60;1.00
4813;DHT22;2420;51.202;8.698;2023-06-26T01:17:41;17.50;1.00
4813;DHT22;2420;51.202;8.698;2023-06-26T01:20:10;17.40;1.00
4813;DHT22;2420;51.202;8.698;2023-06-26T01:23:05;17.40;1.00
4813;DHT22;2420;51.202;8.698;2023-06-26T01:25:45;17.50;1.00
4813;DHT22;2420;51.202;8.698;2023-06-26T01:28:18;17.40;1.00
4813;DHT22;2420;51.202;8.698;2023-06-26T01:30:45;17.40;1.00
4813;DHT22;2420;51.202;8.698;2023-06-26T01:33:12;17.30;1.00
4813;DHT22;2420;51.202;8.698;2023-06-26T01:35:39;17.20;1.00
4813;DHT22;2420;51.202;8.698;2023-06-26T01:38:19;17.20;1.00
4813;DHT22;2420;51.202;8.698;2023-06-26T01:40:46;17.20;1.00
4813;DHT22;2420;51.202;8.698;2023-06-26T01:46:40;17.20;1.00
4813;DHT22;2420;51.202;8.698;2023-06-26T01:51:44;17.30;1.00
4813;DHT22;2420;51.202;8.698;2023-06-26T01:54:16;17.20;1.00
4813;DHT22;2420;51.202;8.698;2023-06-26T01:56:43;17.20;1.00
4813;DHT22;2420;51.202;8.698;2023-06-26T01:59:11;17.20;1.00
4813;DHT22;2420;51.202;8.698;2023-06-26T02:01:39;17.20;1.00
4813;DHT22;2420;51.202;8.698;2023-06-26T02:04:05;17.10;1.00
4813;DHT22;2420;51.202;8.698;2023-06-26T02:06:30;17.20;1.00
4813;DHT22;2420;51.202;8.698;2023-06-26T02:08:56;17.10;1.00
4813;DHT22;2420;51.202;8.698;2023-06-26T02:11:22;17.00;1.00
4813;DHT22;2420;51.202;8.698;2023-06-26T02:13:48;17.10;1.00
4813;DHT22;2420;51.202;8.698;2023-06-26T02:16:13;17.10;1.00
4813;DHT22;2420;51.202;8.698;2023-06-26T02:18:39;17.00;1.00
4813;DHT22;2420;51.202;8.698;2023-06-26T02:21:05;17.00;1.00
4813;DHT22;2420;51.202;8.698;2023-06-26T02:23:31;17.00;1.00
4813;DHT22;2420;51.202;8.698;2023-06-26T02:25:56;16.90;1.00
4813;DHT22;2420;51.202;8.698;2023-06-26T02:28:22;16.90;1.00
4813;DHT22;2420;51.202;8.698;2023-06-26T02:30:47;16.90;1.00
4813;DHT22;2420;51.202;8.698;2023-06-26T02:33:13;16.80;1.00
4813;DHT22;2420;51.202;8.698;2023-06-26T02:35:38;16.70;1.00
4813;DHT22;2420;51.202;8.698;2023-06-26T02:38:04;16.70;1.00
4813;DHT22;2420;51.202;8.698;2023-06-26T02:40:30;16.70;1.00
4813;DHT22;2420;51.202;8.698;2023-06-26T02:42:55;16.60;1.00
4813;DHT22;2420;51.202;8.698;2023-06-26T02:45:21;16.70;1.00
4813;DHT22;2420;51.202;8.698;2023-06-26T02:47:46;16.60;1.00
4813;DHT22;2420;51.202;8.698;2023-06-26T02:50:12;16.50;1.00
4813;DHT22;2420;51.202;8.698;2023-06-26T02:52:37;16.50;1.00
4813;DHT22;2420;51.202;8.698;2023-06-26T02:55:04;16.50;1.00
4813;DHT22;2420;51.202;8.698;2023-06-26T02:57:30;16.50;1.00
4813;DHT22;2420;51.202;8.698;2023-06-26T02:59:56;16.50;1.00
4813;DHT22;2420;51.202;8.698;2023-06-26T03:02:21;16.50;1.00
4813;DHT22;2420;51.202;8.698;2023-06-26T03:04:47;16.40;1.00
4813;DHT22;2420;51.202;8.698;2023-06-26T03:07:13;16.40;1.00
4813;DHT22;2420;51.202;8.698;2023-06-26T03:09:38;16.40;1.00
4813;DHT22;2420;51.202;8.698;2023-06-26T03:12:04;16.40;1.00
4813;DHT22;2420;51.202;8.698;2023-06-26T03:14:30;16.30;1.00
4813;DHT22;2420;51.202;8.698;2023-06-26T03:16:57;16.30;1.00
4813;DHT22;2420;51.202;8.698;2023-06-26T03:19:24;16.30;1.00
4813;DHT22;2420;51.202;8.698;2023-06-26T03:21:50;16.30;1.00
4813;DHT22;2420;51.202;8.698;2023-06-26T03:24:16;16.20;1.00
4813;DHT22;2420;51.202;8.698;2023-06-26T03:26:41;16.20;1.00
4813;DHT22;2420;51.202;8.698;2023-06-26T03:29:07;16.20;1.00
4813;DHT22;2420;51.202;8.698;2023-06-26T03:31:32;16.20;1.00
4813;DHT22;2420;51.202;8.698;2023-06-26T03:33:58;16.10;1.00
4813;DHT22;2420;51.202;8.698;2023-06-26T03:36:23;16.10;1.00
4813;DHT22;2420;51.202;8.698;2023-06-26T03:38:49;16.10;1.00
4813;DHT22;2420;51.202;8.698;2023-06-26T03:41:14;16.10;1.00
4813;DHT22;2420;51.202;8.698;2023-06-26T03:43:40;16.20;1.00
4813;DHT22;2420;51.202;8.698;2023-06-26T03:46:05;16.20;1.00
4813;DHT22;2420;51.202;8.698;2023-06-26T03:48:31;16.20;1.00
4813;DHT22;2420;51.202;8.698;2023-06-26T03:50:56;16.20;1.00
4813;DHT22;2420;51.202;8.698;2023-06-26T03:53:22;16.30;1.00
4813;DHT22;2420;51.202;8.698;2023-06-26T03:55:48;16.30;1.00
4813;DHT22;2420;51.202;8.698;2023-06-26T03:58:14;16.40;1.00
4813;DHT22;2420;51.202;8.698;2023-06-26T04:00:40;16.40;1.00
4813;DHT22;2420;51.202;8.698;2023-06-26T04:03:06;16.30;1.00
4813;DHT22;2420;51.202;8.698;2023-06-26T04:05:31;16.40;1.00
4813;DHT22;2420;51.202;8.698;2023-06-26T04:07:57;16.40;1.00
4813;DHT22;2420;51.202;8.698;2023-06-26T04:10:22;16.40;1.00
4813;DHT22;2420;51.202;8.698;2023-06-26T04:12:48;16.50;1.00
4813;DHT22;2420;51.202;8.698;2023-06-26T04:15:14;16.50;1.00
4813;DHT22;2420;51.202;8.698;2023-06-26T04:17:39;16.50;1.00
4813;DHT22;2420;51.202;8.698;2023-06-26T04:20:05;16.50;1.00
4813;DHT22;2420;51.202;8.698;2023-06-26T04:22:32;16.60;1.00
4813;DHT22;2420;51.202;8.698;2023-06-26T04:24:58;16.60;1.00
4813;DHT22;2420;51.202;8.698;2023-06-26T04:27:23;16.60;1.00
4813;DHT22;2420;51.202;8.698;2023-06-26T04:29:49;16.60;1.00
4813;DHT22;2420;51.202;8.698;2023-06-26T04:32:14;16.90;1.00
4813;DHT22;2420;51.202;8.698;2023-06-26T04:34:40;17.20;1.00
4813;DHT22;2420;51.202;8.698;2023-06-26T04:37:08;17.40;1.00
4813;DHT22;2420;51.202;8.698;2023-06-26T04:39:35;17.50;1.00
4813;DHT22;2420;51.202;8.698;2023-06-26T04:42:02;17.60;1.00
4813;DHT22;2420;51.202;8.698;2023-06-26T04:44:28;17.60;1.00
4813;DHT22;2420;51.202;8.698;2023-06-26T04:46:54;17.60;1.00
4813;DHT22;2420;51.202;8.698;2023-06-26T04:49:19;17.70;1.00
4813;DHT22;2420;51.202;8.698;2023-06-26T04:51:45;17.70;1.00
4813;DHT22;2420;51.202;8.698;2023-06-26T04:54:11;17.80;1.00
4813;DHT22;2420;51.202;8.698;2023-06-26T04:56:37;17.90;1.00
4813;DHT22;2420;51.202;8.698;2023-06-26T04:59:05;18.00;1.00
4813;DHT22;2420;51.202;8.698;2023-06-26T05:01:31;18.40;1.00
4813;DHT22;2420;51.202;8.698;2023-06-26T05:04:00;18.60;1.00
4813;DHT22;2420;51.202;8.698;2023-06-26T05:06:26;18.80;1.00
4813;DHT22;2420;51.202;8.698;2023-06-26T05:08:51;19.10;1.00
4813;DHT22;2420;51.202;8.698;2023-06-26T05:11:17;19.40;1.00
4813;DHT22;2420;51.202;8.698;2023-06-26T05:13:42;19.90;1.00
4813;DHT22;2420;51.202;8.698;2023-06-26T05:16:09;20.30;1.00
4813;DHT22;2420;51.202;8.698;2023-06-26T05:18:35;20.60;1.00
4813;DHT22;2420;51.202;8.698;2023-06-26T05:21:01;21.20;1.00
4813;DHT22;2420;51.202;8.698;2023-06-26T05:23:30;21.60;1.00
4813;DHT22;2420;51.202;8.698;2023-06-26T05:25:56;21.80;1.00
4813;DHT22;2420;51.202;8.698;2023-06-26T05:28:23;21.90;1.00
4813;DHT22;2420;51.202;8.698;2023-06-26T05:30:50;22.00;1.00
4813;DHT22;2420;51.202;8.698;2023-06-26T05:33:18;22.20;1.00
4813;DHT22;2420;51.202;8.698;2023-06-26T05:35:45;22.50;1.00
4813;DHT22;2420;51.202;8.698;2023-06-26T05:38:12;22.60;1.00
4813;DHT22;2420;51.202;8.698;2023-06-26T05:40:39;22.80;1.00
4813;DHT22;2420;51.202;8.698;2023-06-26T05:43:06;22.80;1.00
4813;DHT22;2420;51.202;8.698;2023-06-26T05:45:32;22.90;1.00
4813;DHT22;2420;51.202;8.698;2023-06-26T05:47:57;23.00;1.00
4813;DHT22;2420;51.202;8.698;2023-06-26T05:50:23;22.70;1.00
4813;DHT22;2420;51.202;8.698;2023-06-26T05:52:49;22.10;1.00
4813;DHT22;2420;51.202;8.698;2023-06-26T05:55:15;22.00;1.00
4813;DHT22;2420;51.202;8.698;2023-06-26T05:57:41;21.80;1.00
4813;DHT22;2420;51.202;8.698;2023-06-26T06:00:08;21.50;1.00
4813;DHT22;2420;51.202;8.698;2023-06-26T06:02:37;21.50;1.00
4813;DHT22;2420;51.202;8.698;2023-06-26T06:05:03;21.50;1.00
4813;DHT22;2420;51.202;8.698;2023-06-26T06:07:28;21.80;1.00
4813;DHT22;2420;51.202;8.698;2023-06-26T06:09:54;21.60;1.00
4813;DHT22;2420;51.202;8.698;2023-06-26T06:12:19;21.70;1.00
4813;DHT22;2420;51.202;8.698;2023-06-26T06:14:45;21.70;1.00
4813;DHT22;2420;51.202;8.698;2023-06-26T06:17:10;21.90;1.00
4813;DHT22;2420;51.202;8.698;2023-06-26T06:19:36;21.90;1.00
4813;DHT22;2420;51.202;8.698;2023-06-26T06:22:01;21.80;1.00
4813;DHT22;2420;51.202;8.698;2023-06-26T06:24:27;21.90;1.00
4813;DHT22;2420;51.202;8.698;2023-06-26T06:26:53;22.00;1.00
4813;DHT22;2420;51.202;8.698;2023-06-26T06:29:18;22.10;1.00
4813;DHT22;2420;51.202;8.698;2023-06-26T06:31:45;22.10;1.00
4813;DHT22;2420;51.202;8.698;2023-06-26T06:34:13;22.10;1.00
4813;DHT22;2420;51.202;8.698;2023-06-26T06:36:39;22.20;1.00
4813;DHT22;2420;51.202;8.698;2023-06-26T06:39:04;22.20;1.00
4813;DHT22;2420;51.202;8.698;2023-06-26T06:41:30;22.30;1.00
4813;DHT22;2420;51.202;8.698;2023-06-26T06:43:55;22.20;1.00
4813;DHT22;2420;51.202;8.698;2023-06-26T06:46:21;22.20;1.00
4813;DHT22;2420;51.202;8.698;2023-06-26T06:48:47;22.30;1.00
4813;DHT22;2420;51.202;8.698;2023-06-26T06:51:13;22.40;1.00
4813;DHT22;2420;51.202;8.698;2023-06-26T06:53:38;22.40;1.00
4813;DHT22;2420;51.202;8.698;2023-06-26T06:56:04;22.40;1.00
4813;DHT22;2420;51.202;8.698;2023-06-26T06:58:29;22.50;1.00
4813;DHT22;2420;51.202;8.698;2023-06-26T07:00:59;22.70;1.00
4813;DHT22;2420;51.202;8.698;2023-06-26T07:03:24;22.80;1.00
4813;DHT22;2420;51.202;8.698;2023-06-26T07:05:50;22.90;1.00
4813;DHT22;2420;51.202;8.698;2023-06-26T07:08:15;23.00;1.00
4813;DHT22;2420;51.202;8.698;2023-06-26T07:10:41;23.00;1.00
4813;DHT22;2420;51.202;8.698;2023-06-26T07:13:07;23.10;1.00
4813;DHT22;2420;51.202;8.698;2023-06-26T07:15:32;23.30;1.00
4813;DHT22;2420;51.202;8.698;2023-06-26T07:17:58;23.50;1.00
4813;DHT22;2420;51.202;8.698;2023-06-26T07:20:23;23.70;1.00
4813;DHT22;2420;51.202;8.698;2023-06-26T07:22:49;24.00;1.00
4813;DHT22;2420;51.202;8.698;2023-06-26T07:25:15;24.30;1.00
4813;DHT22;2420;51.202;8.698;2023-06-26T07:27:41;24.50;1.00
4813;DHT22;2420;51.202;8.698;2023-06-26T07:30:08;24.60;1.00
4813;DHT22;2420;51.202;8.698;2023-06-26T07:32:37;24.90;1.00
4813;DHT22;2420;51.202;8.698;2023-06-26T07:35:03;25.10;1.00
4813;DHT22;2420;51.202;8.698;2023-06-26T07:37:28;25.30;1.00
4813;DHT22;2420;51.202;8.698;2023-06-26T07:39:54;25.40;1.00
4813;DHT22;2420;51.202;8.698;2023-06-26T07:42:20;25.70;1.00
4813;DHT22;2420;51.202;8.698;2023-06-26T07:44:45;25.90;1.00
4813;DHT22;2420;51.202;8.698;2023-06-26T07:47:11;26.10;1.00
4813;DHT22;2420;51.202;8.698;2023-06-26T07:49:36;26.20;1.00
4813;DHT22;2420;51.202;8.698;2023-06-26T07:52:04;26.40;1.00
4813;DHT22;2420;51.202;8.698;2023-06-26T07:54:30;26.50;1.00
4813;DHT22;2420;51.202;8.698;2023-06-26T07:56:56;26.70;1.00
4813;DHT22;2420;51.202;8.698;2023-06-26T07:59:23;26.80;1.00
4813;DHT22;2420;51.202;8.698;2023-06-26T08:01:50;27.10;1.00
4813;DHT22;2420;51.202;8.698;2023-06-26T08:04:18;27.20;1.00
4813;DHT22;2420;51.202;8.698;2023-06-26T08:06:48;27.30;1.00
4813;DHT22;2420;51.202;8.698;2023-06-26T08:09:13;27.50;1.00
4813;DHT22;2420;51.202;8.698;2023-06-26T08:11:39;27.70;1.00
4813;DHT22;2420;51.202;8.698;2023-06-26T08:14:05;27.70;1.00
4813;DHT22;2420;51.202;8.698;2023-06-26T08:16:30;27.80;1.00
4813;DHT22;2420;51.202;8.698;2023-06-26T08:18:56;27.70;1.00
4813;DHT22;2420;51.202;8.698;2023-06-26T08:21:21;27.40;1.00
4813;DHT22;2420;51.202;8.698;2023-06-26T08:23:47;27.40;1.00
4813;DHT22;2420;51.202;8.698;2023-06-26T08:26:13;27.20;1.00
4813;DHT22;2420;51.202;8.698;2023-06-26T08:28:39;27.00;1.00
4813;DHT22;2420;51.202;8.698;2023-06-26T08:31:05;26.80;1.00
4813;DHT22;2420;51.202;8.698;2023-06-26T08:33:30;26.70;1.00
4813;DHT22;2420;51.202;8.698;2023-06-26T08:35:55;26.60;1.00
4813;DHT22;2420;51.202;8.698;2023-06-26T08:38:21;26.70;1.00
4813;DHT22;2420;51.202;8.698;2023-06-26T08:40:47;26.90;1.00
4813;DHT22;2420;51.202;8.698;2023-06-26T08:43:15;27.00;1.00
4813;DHT22;2420;51.202;8.698;2023-06-26T08:45:41;27.20;1.00
4813;DHT22;2420;51.202;8.698;2023-06-26T08:48:10;27.40;1.00
4813;DHT22;2420;51.202;8.698;2023-06-26T08:50:38;27.50;1.00
4813;DHT22;2420;51.202;8.698;2023-06-26T08:55:43;27.70;1.00
4813;DHT22;2420;51.202;8.698;2023-06-26T08:58:10;28.00;1.00
4813;DHT22;2420;51.202;8.698;2023-06-26T09:00:37;28.10;1.00
4813;DHT22;2420;51.202;8.698;2023-06-26T09:03:03;28.20;1.00
4813;DHT22;2420;51.202;8.698;2023-06-26T09:05:29;28.30;1.00
4813;DHT22;2420;51.202;8.698;2023-06-26T09:07:57;28.20;1.00
4813;DHT22;2420;51.202;8.698;2023-06-26T09:10:23;28.40;1.00
4813;DHT22;2420;51.202;8.698;2023-06-26T09:12:50;28.60;1.00
4813;DHT22;2420;51.202;8.698;2023-06-26T09:15:18;28.70;1.00
4813;DHT22;2420;51.202;8.698;2023-06-26T09:17:44;28.60;1.00
4813;DHT22;2420;51.202;8.698;2023-06-26T09:20:10;28.20;1.00
4813;DHT22;2420;51.202;8.698;2023-06-26T09:22:37;27.70;1.00
4813;DHT22;2420;51.202;8.698;2023-06-26T09:25:05;27.40;1.00
4813;DHT22;2420;51.202;8.698;2023-06-26T09:27:31;27.10;1.00
4813;DHT22;2420;51.202;8.698;2023-06-26T09:29:57;27.00;1.00
4813;DHT22;2420;51.202;8.698;2023-06-26T09:32:26;26.90;1.00
4813;DHT22;2420;51.202;8.698;2023-06-26T09:34:53;26.60;1.00
4813;DHT22;2420;51.202;8.698;2023-06-26T09:37:22;26.40;1.00
4813;DHT22;2420;51.202;8.698;2023-06-26T09:39:48;26.10;1.00
4813;DHT22;2420;51.202;8.698;2023-06-26T09:42:14;25.90;1.00
4813;DHT22;2420;51.202;8.698;2023-06-26T09:44:44;25.80;1.00
4813;DHT22;2420;51.202;8.698;2023-06-26T09:47:15;25.80;1.00
4813;DHT22;2420;51.202;8.698;2023-06-26T09:49:42;25.80;1.00
4813;DHT22;2420;51.202;8.698;2023-06-26T09:52:08;25.60;1.00
4813;DHT22;2420;51.202;8.698;2023-06-26T09:54:34;25.80;1.00
4813;DHT22;2420;51.202;8.698;2023-06-26T09:57:08;25.80;1.00
4813;DHT22;2420;51.202;8.698;2023-06-26T09:59:33;26.00;1.00
4813;DHT22;2420;51.202;8.698;2023-06-26T10:02:00;26.10;1.00
4813;DHT22;2420;51.202;8.698;2023-06-26T10:04:25;26.30;1.00
4813;DHT22;2420;51.202;8.698;2023-06-26T10:06:55;26.70;1.00
4813;DHT22;2420;51.202;8.698;2023-06-26T10:09:22;27.10;1.00
4813;DHT22;2420;51.202;8.698;2023-06-26T10:11:57;27.70;1.00
4813;DHT22;2420;51.202;8.698;2023-06-26T10:14:26;27.60;1.00
4813;DHT22;2420;51.202;8.698;2023-06-26T10:16:57;27.40;1.00
4813;DHT22;2420;51.202;8.698;2023-06-26T10:19:24;27.20;1.00
4813;DHT22;2420;51.202;8.698;2023-06-26T10:21:55;27.40;1.00
4813;DHT22;2420;51.202;8.698;2023-06-26T10:24:23;27.70;1.00
4813;DHT22;2420;51.202;8.698;2023-06-26T10:26:59;27.50;1.00
4813;DHT22;2420;51.202;8.698;2023-06-26T10:29:26;27.20;1.00
4813;DHT22;2420;51.202;8.698;2023-06-26T10:31:54;27.20;1.00
4813;DHT22;2420;51.202;8.698;2023-06-26T10:34:21;27.30;1.00
4813;DHT22;2420;51.202;8.698;2023-06-26T10:36:47;27.40;1.00
4813;DHT22;2420;51.202;8.698;2023-06-26T10:39:17;27.70;1.00
4813;DHT22;2420;51.202;8.698;2023-06-26T10:41:42;27.70;1.00
4813;DHT22;2420;51.202;8.698;2023-06-26T10:44:12;27.60;1.00
4813;DHT22;2420;51.202;8.698;2023-06-26T10:46:52;27.50;1.00
4813;DHT22;2420;51.202;8.698;2023-06-26T10:49:19;27.10;1.00
4813;DHT22;2420;51.202;8.698;2023-06-26T10:51:50;26.70;1.00
4813;DHT22;2420;51.202;8.698;2023-06-26T10:54:17;26.50;1.00
4813;DHT22;2420;51.202;8.698;2023-06-26T10:56:47;26.40;1.00
4813;DHT22;2420;51.202;8.698;2023-06-26T10:59:20;26.40;1.00
4813;DHT22;2420;51.202;8.698;2023-06-26T11:01:56;26.30;1.00
4813;DHT22;2420;51.202;8.698;2023-06-26T11:04:49;26.20;1.00
4813;DHT22;2420;51.202;8.698;2023-06-26T11:07:24;26.10;1.00
4813;DHT22;2420;51.202;8.698;2023-06-26T11:15:11;25.80;1.00
4813;DHT22;2420;51.202;8.698;2023-06-26T11:17:38;25.90;1.00
4813;DHT22;2420;51.202;8.698;2023-06-26T11:20:15;26.50;1.00
4813;DHT22;2420;51.202;8.698;2023-06-26T11:22:42;27.00;1.00
4813;DHT22;2420;51.202;8.698;2023-06-26T11:25:09;26.90;1.00
4813;DHT22;2420;51.202;8.698;2023-06-26T11:27:41;26.90;1.00
4813;DHT22;2420;51.202;8.698;2023-06-26T11:30:09;26.40;1.00
4813;DHT22;2420;51.202;8.698;2023-06-26T11:32:37;26.00;1.00
4813;DHT22;2420;51.202;8.698;2023-06-26T11:35:03;25.80;1.00
4813;DHT22;2420;51.202;8.698;2023-06-26T11:37:30;25.80;1.00
4813;DHT22;2420;51.202;8.698;2023-06-26T11:39:56;26.20;1.00
4813;DHT22;2420;51.202;8.698;2023-06-26T11:42:22;26.40;1.00
4813;DHT22;2420;51.202;8.698;2023-06-26T11:44:49;26.60;1.00
4813;DHT22;2420;51.202;8.698;2023-06-26T11:47:19;26.60;1.00
4813;DHT22;2420;51.202;8.698;2023-06-26T11:49:47;26.60;1.00
4813;DHT22;2420;51.202;8.698;2023-06-26T11:52:13;26.70;1.00
4813;DHT22;2420;51.202;8.698;2023-06-26T11:54:39;26.80;1.00
4813;DHT22;2420;51.202;8.698;2023-06-26T11:57:05;27.00;1.00
4813;DHT22;2420;51.202;8.698;2023-06-26T11:59:38;27.00;1.00
4813;DHT22;2420;51.202;8.698;2023-06-26T12:02:06;26.90;1.00
4813;DHT22;2420;51.202;8.698;2023-06-26T12:04:32;26.60;1.00
4813;DHT22;2420;51.202;8.698;2023-06-26T12:06:59;26.30;1.00
4813;DHT22;2420;51.202;8.698;2023-06-26T12:09:26;26.00;1.00
4813;DHT22;2420;51.202;8.698;2023-06-26T12:11:53;26.10;1.00
4813;DHT22;2420;51.202;8.698;2023-06-26T12:14:20;26.30;1.00
4813;DHT22;2420;51.202;8.698;2023-06-26T12:16:47;26.60;1.00
4813;DHT22;2420;51.202;8.698;2023-06-26T12:19:13;26.80;1.00
4813;DHT22;2420;51.202;8.698;2023-06-26T12:24:19;26.90;1.00
4813;DHT22;2420;51.202;8.698;2023-06-26T12:26:53;26.70;1.00
4813;DHT22;2420;51.202;8.698;2023-06-26T12:29:28;27.00;1.00
4813;DHT22;2420;51.202;8.698;2023-06-26T12:31:54;27.20;1.00
4813;DHT22;2420;51.202;8.698;2023-06-26T12:34:26;27.10;1.00
4813;DHT22;2420;51.202;8.698;2023-06-26T12:36:52;26.80;1.00
4813;DHT22;2420;51.202;8.698;2023-06-26T12:39:21;26.70;1.00
4813;DHT22;2420;51.202;8.698;2023-06-26T12:41:53;26.60;1.00
4813;DHT22;2420;51.202;8.698;2023-06-26T12:44:20;26.40;1.00
4813;DHT22;2420;51.202;8.698;2023-06-26T12:46:53;26.40;1.00
4813;DHT22;2420;51.202;8.698;2023-06-26T12:49:18;26.10;1.00
4813;DHT22;2420;51.202;8.698;2023-06-26T12:51:45;26.40;1.00
4813;DHT22;2420;51.202;8.698;2023-06-26T12:54:10;26.50;1.00
4813;DHT22;2420;51.202;8.698;2023-06-26T12:56:36;26.40;1.00
4813;DHT22;2420;51.202;8.698;2023-06-26T12:59:02;26.60;1.00
4813;DHT22;2420;51.202;8.698;2023-06-26T13:01:27;26.60;1.00
4813;DHT22;2420;51.202;8.698;2023-06-26T13:03:53;26.60;1.00
4813;DHT22;2420;51.202;8.698;2023-06-26T13:06:19;26.40;1.00
4813;DHT22;2420;51.202;8.698;2023-06-26T13:08:45;26.00;1.00
4813;DHT22;2420;51.202;8.698;2023-06-26T13:11:10;26.20;1.00
4813;DHT22;2420;51.202;8.698;2023-06-26T13:13:36;26.30;1.00
4813;DHT22;2420;51.202;8.698;2023-06-26T13:16:01;26.50;1.00
4813;DHT22;2420;51.202;8.698;2023-06-26T13:18:27;26.60;1.00
4813;DHT22;2420;51.202;8.698;2023-06-26T13:20:53;26.80;1.00
4813;DHT22;2420;51.202;8.698;2023-06-26T13:23:18;26.70;1.00
4813;DHT22;2420;51.202;8.698;2023-06-26T13:25:45;26.50;1.00
4813;DHT22;2420;51.202;8.698;2023-06-26T13:28:11;26.70;1.00
4813;DHT22;2420;51.202;8.698;2023-06-26T13:30:36;26.70;1.00
4813;DHT22;2420;51.202;8.698;2023-06-26T13:33:02;26.90;1.00
4813;DHT22;2420;51.202;8.698;2023-06-26T13:35:27;26.70;1.00
4813;DHT22;2420;51.202;8.698;2023-06-26T13:37:53;26.20;1.00
4813;DHT22;2420;51.202;8.698;2023-06-26T13:40:19;26.00;1.00
4813;DHT22;2420;51.202;8.698;2023-06-26T13:42:44;25.70;1.00
4813;DHT22;2420;51.202;8.698;2023-06-26T13:45:10;25.60;1.00
4813;DHT22;2420;51.202;8.698;2023-06-26T13:47:37;25.80;1.00
4813;DHT22;2420;51.202;8.698;2023-06-26T13:50:07;26.10;1.00
4813;DHT22;2420;51.202;8.698;2023-06-26T13:52:33;26.20;1.00
4813;DHT22;2420;51.202;8.698;2023-06-26T13:54:58;26.40;1.00
4813;DHT22;2420;51.202;8.698;2023-06-26T13:57:24;26.30;1.00
4813;DHT22;2420;51.202;8.698;2023-06-26T13:59:49;26.10;1.00
4813;DHT22;2420;51.202;8.698;2023-06-26T14:02:15;26.00;1.00
4813;DHT22;2420;51.202;8.698;2023-06-26T14:04:40;26.00;1.00
4813;DHT22;2420;51.202;8.698;2023-06-26T14:07:06;26.00;1.00
4813;DHT22;2420;51.202;8.698;2023-06-26T14:09:32;26.10;1.00
4813;DHT22;2420;51.202;8.698;2023-06-26T14:11:58;26.30;1.00
4813;DHT22;2420;51.202;8.698;2023-06-26T14:14:23;26.40;1.00
4813;DHT22;2420;51.202;8.698;2023-06-26T14:16:49;26.30;1.00
4813;DHT22;2420;51.202;8.698;2023-06-26T14:19:14;26.10;1.00
4813;DHT22;2420;51.202;8.698;2023-06-26T14:21:42;25.90;1.00
4813;DHT22;2420;51.202;8.698;2023-06-26T14:24:08;25.80;1.00
4813;DHT22;2420;51.202;8.698;2023-06-26T14:26:34;25.80;1.00
4813;DHT22;2420;51.202;8.698;2023-06-26T14:29:00;25.80;1.00
4813;DHT22;2420;51.202;8.698;2023-06-26T14:31:26;25.80;1.00
4813;DHT22;2420;51.202;8.698;2023-06-26T14:33:51;25.70;1.00
4813;DHT22;2420;51.202;8.698;2023-06-26T14:36:17;25.60;1.00
4813;DHT22;2420;51.202;8.698;2023-06-26T14:38:42;25.40;1.00
4813;DHT22;2420;51.202;8.698;2023-06-26T14:41:08;25.30;1.00
4813;DHT22;2420;51.202;8.698;2023-06-26T14:43:33;25.10;1.00
4813;DHT22;2420;51.202;8.698;2023-06-26T14:45:59;25.10;1.00
4813;DHT22;2420;51.202;8.698;2023-06-26T14:48:25;25.20;1.00
4813;DHT22;2420;51.202;8.698;2023-06-26T14:50:50;25.30;1.00
4813;DHT22;2420;51.202;8.698;2023-06-26T14:53:16;25.20;1.00
4813;DHT22;2420;51.202;8.698;2023-06-26T14:55:42;25.20;1.00
4813;DHT22;2420;51.202;8.698;2023-06-26T14:58:07;25.00;1.00
4813;DHT22;2420;51.202;8.698;2023-06-26T15:00:33;24.90;1.00
4813;DHT22;2420;51.202;8.698;2023-06-26T15:02:58;25.00;1.00
4813;DHT22;2420;51.202;8.698;2023-06-26T15:05:24;24.90;1.00
4813;DHT22;2420;51.202;8.698;2023-06-26T15:07:50;25.00;1.00
4813;DHT22;2420;51.202;8.698;2023-06-26T15:10:15;25.00;1.00
4813;DHT22;2420;51.202;8.698;2023-06-26T15:12:42;25.00;1.00
4813;DHT22;2420;51.202;8.698;2023-06-26T15:15:09;25.00;1.00
4813;DHT22;2420;51.202;8.698;2023-06-26T15:17:34;25.00;1.00
4813;DHT22;2420;51.202;8.698;2023-06-26T15:20:00;25.00;1.00
4813;DHT22;2420;51.202;8.698;2023-06-26T15:22:26;25.00;1.00
4813;DHT22;2420;51.202;8.698;2023-06-26T15:24:52;25.00;1.00
4813;DHT22;2420;51.202;8.698;2023-06-26T15:27:18;24.90;1.00
4813;DHT22;2420;51.202;8.698;2023-06-26T15:29:43;25.00;1.00
4813;DHT22;2420;51.202;8.698;2023-06-26T15:32:09;25.10;1.00
4813;DHT22;2420;51.202;8.698;2023-06-26T15:34:35;24.90;1.00
4813;DHT22;2420;51.202;8.698;2023-06-26T15:37:00;24.90;1.00
4813;DHT22;2420;51.202;8.698;2023-06-26T15:39:26;24.70;1.00
4813;DHT22;2420;51.202;8.698;2023-06-26T15:41:51;24.50;1.00
4813;DHT22;2420;51.202;8.698;2023-06-26T15:44:18;24.40;1.00
4813;DHT22;2420;51.202;8.698;2023-06-26T15:46:43;24.30;1.00
4813;DHT22;2420;51.202;8.698;2023-06-26T15:49:09;24.20;1.00
4813;DHT22;2420;51.202;8.698;2023-06-26T15:51:35;24.10;1.00
4813;DHT22;2420;51.202;8.698;2023-06-26T15:54:03;24.10;1.00
4813;DHT22;2420;51.202;8.698;2023-06-26T15:56:29;24.10;1.00
4813;DHT22;2420;51.202;8.698;2023-06-26T15:58:54;24.00;1.00
4813;DHT22;2420;51.202;8.698;2023-06-26T16:01:20;24.10;1.00
4813;DHT22;2420;51.202;8.698;2023-06-26T16:03:46;23.90;1.00
4813;DHT22;2420;51.202;8.698;2023-06-26T16:06:12;23.90;1.00
4813;DHT22;2420;51.202;8.698;2023-06-26T16:08:38;23.90;1.00
4813;DHT22;2420;51.202;8.698;2023-06-26T16:11:05;23.90;1.00
4813;DHT22;2420;51.202;8.698;2023-06-26T16:13:30;23.80;1.00
4813;DHT22;2420;51.202;8.698;2023-06-26T16:15:56;23.80;1.00
4813;DHT22;2420;51.202;8.698;2023-06-26T16:18:22;23.80;1.00
4813;DHT22;2420;51.202;8.698;2023-06-26T16:20:47;23.70;1.00
4813;DHT22;2420;51.202;8.698;2023-06-26T16:23:13;23.60;1.00
4813;DHT22;2420;51.202;8.698;2023-06-26T16:25:39;23.40;1.00
4813;DHT22;2420;51.202;8.698;2023-06-26T16:28:05;23.30;1.00
4813;DHT22;2420;51.202;8.698;2023-06-26T16:30:30;23.20;1.00